logo
Search for airport 
image banner adimage banner adimage banner ad
image banner ad

OPSK - Sukkur/Begum Nusrat Bhutto Airport

Located in Sukkur, Pakistan

ICAO - OPSK, IATA - SKZ

Data provided by Airmate  

General information

Coordinates: N27°43'19" E68°47'31"
Elevation is 196 feet MSL.
 
View others Airports in Sindh

Operational data

Special qualification required
Current time UTC:
Current local time:
Weather
TAF: TAF OPSK 241700Z 2418/2518 14005KT 4000 HZ NSC FM250600 14008G18KT 5000 HZ FEW030 SCT100
View NOTAMs / SUP AIP / TFR affecting this airport [VIEW]
Communications frequencies: [VIEW]

Runways:

RWY identifierQFULength (ft)Width (ft)SurfaceLDA (ft)
14141°899998ASP
32321°899998ASP

Airport contact information

Address: Sukkur Pakistan

Satellite view of OPSK